sensor_id;sensor_type;location;lat;lon;timestamp;P1;durP1;ratioP1;P2;durP2;ratioP2
78148;SDS011;67396;42.664;23.382;2023-02-25T00:00:41;20.67;;;9.50;;
78148;SDS011;67396;42.664;23.382;2023-02-25T00:03:08;20.08;;;11.07;;
78148;SDS011;67396;42.664;23.382;2023-02-25T00:05:37;19.15;;;10.68;;
78148;SDS011;67396;42.664;23.382;2023-02-25T00:08:06;21.15;;;11.50;;
78148;SDS011;67396;42.664;23.382;2023-02-25T00:10:32;19.85;;;11.15;;
78148;SDS011;67396;42.664;23.382;2023-02-25T00:12:57;21.40;;;10.90;;
78148;SDS011;67396;42.664;23.382;2023-02-25T00:15:23;21.02;;;12.43;;
78148;SDS011;67396;42.664;23.382;2023-02-25T00:17:48;20.00;;;12.07;;
78148;SDS011;67396;42.664;23.382;2023-02-25T00:20:14;19.40;;;11.65;;
78148;SDS011;67396;42.664;23.382;2023-02-25T00:22:41;18.48;;;10.88;;
78148;SDS011;67396;42.664;23.382;2023-02-25T00:25:07;22.40;;;12.18;;
78148;SDS011;67396;42.664;23.382;2023-02-25T00:27:33;24.83;;;12.27;;
78148;SDS011;67396;42.664;23.382;2023-02-25T00:29:59;24.42;;;10.73;;
78148;SDS011;67396;42.664;23.382;2023-02-25T00:32:25;17.77;;;11.65;;
78148;SDS011;67396;42.664;23.382;2023-02-25T00:34:51;21.08;;;13.55;;
78148;SDS011;67396;42.664;23.382;2023-02-25T00:37:16;21.02;;;11.95;;
78148;SDS011;67396;42.664;23.382;2023-02-25T00:39:42;19.15;;;11.35;;
78148;SDS011;67396;42.664;23.382;2023-02-25T00:42:08;19.45;;;10.85;;
78148;SDS011;67396;42.664;23.382;2023-02-25T00:44:38;17.95;;;11.32;;
78148;SDS011;67396;42.664;23.382;2023-02-25T00:47:03;20.52;;;10.98;;
78148;SDS011;67396;42.664;23.382;2023-02-25T00:49:30;20.75;;;11.25;;
78148;SDS011;67396;42.664;23.382;2023-02-25T00:51:55;21.27;;;11.13;;
78148;SDS011;67396;42.664;23.382;2023-02-25T00:54:21;22.05;;;11.63;;
78148;SDS011;67396;42.664;23.382;2023-02-25T00:56:47;20.33;;;11.13;;
78148;SDS011;67396;42.664;23.382;2023-02-25T00:59:13;23.25;;;10.80;;
78148;SDS011;67396;42.664;23.382;2023-02-25T01:01:38;21.70;;;12.25;;
78148;SDS011;67396;42.664;23.382;2023-02-25T01:04:04;19.95;;;10.77;;
78148;SDS011;67396;42.664;23.382;2023-02-25T01:06:30;18.15;;;10.50;;
78148;SDS011;67396;42.664;23.382;2023-02-25T01:08:57;18.55;;;10.68;;
78148;SDS011;67396;42.664;23.382;2023-02-25T01:11:24;21.08;;;10.93;;
78148;SDS011;67396;42.664;23.382;2023-02-25T01:13:54;18.95;;;10.77;;
78148;SDS011;67396;42.664;23.382;2023-02-25T01:16:25;22.42;;;11.10;;
78148;SDS011;67396;42.664;23.382;2023-02-25T01:18:53;18.17;;;10.05;;
78148;SDS011;67396;42.664;23.382;2023-02-25T01:21:23;18.20;;;10.00;;
78148;SDS011;67396;42.664;23.382;2023-02-25T01:23:53;16.50;;;9.85;;
78148;SDS011;67396;42.664;23.382;2023-02-25T01:26:24;22.70;;;12.15;;
78148;SDS011;67396;42.664;23.382;2023-02-25T01:28:51;17.95;;;10.18;;
78148;SDS011;67396;42.664;23.382;2023-02-25T01:31:17;19.15;;;10.38;;
78148;SDS011;67396;42.664;23.382;2023-02-25T01:33:48;17.63;;;10.55;;
78148;SDS011;67396;42.664;23.382;2023-02-25T01:36:14;19.17;;;11.00;;
78148;SDS011;67396;42.664;23.382;2023-02-25T01:38:40;15.25;;;9.63;;
78148;SDS011;67396;42.664;23.382;2023-02-25T01:41:05;21.35;;;10.65;;
78148;SDS011;67396;42.664;23.382;2023-02-25T01:43:30;16.48;;;10.65;;
78148;SDS011;67396;42.664;23.382;2023-02-25T01:45:56;15.65;;;9.35;;
78148;SDS011;67396;42.664;23.382;2023-02-25T01:48:22;18.98;;;10.68;;
78148;SDS011;67396;42.664;23.382;2023-02-25T01:50:53;18.17;;;10.40;;
78148;SDS011;67396;42.664;23.382;2023-02-25T01:53:24;18.00;;;10.35;;
78148;SDS011;67396;42.664;23.382;2023-02-25T01:55:53;18.85;;;10.60;;
78148;SDS011;67396;42.664;23.382;2023-02-25T01:58:20;15.55;;;9.25;;
78148;SDS011;67396;42.664;23.382;2023-02-25T02:00:46;17.23;;;9.48;;
78148;SDS011;67396;42.664;23.382;2023-02-25T02:03:12;15.60;;;10.23;;
78148;SDS011;67396;42.664;23.382;2023-02-25T02:05:55;19.10;;;9.88;;
78148;SDS011;67396;42.664;23.382;2023-02-25T02:08:31;17.65;;;11.40;;
78148;SDS011;67396;42.664;23.382;2023-02-25T02:10:58;18.13;;;10.75;;
78148;SDS011;67396;42.664;23.382;2023-02-25T02:13:25;17.38;;;10.00;;
78148;SDS011;67396;42.664;23.382;2023-02-25T02:18:48;14.10;;;9.10;;
78148;SDS011;67396;42.664;23.382;2023-02-25T02:21:26;15.32;;;9.57;;
78148;SDS011;67396;42.664;23.382;2023-02-25T02:26:51;16.58;;;9.25;;
78148;SDS011;67396;42.664;23.382;2023-02-25T02:29:30;17.65;;;9.20;;
78148;SDS011;67396;42.664;23.382;2023-02-25T02:35:00;13.55;;;8.63;;
78148;SDS011;67396;42.664;23.382;2023-02-25T02:37:38;16.90;;;8.93;;
78148;SDS011;67396;42.664;23.382;2023-02-25T02:45:48;18.73;;;9.13;;
78148;SDS011;67396;42.664;23.382;2023-02-25T02:50:53;18.30;;;9.27;;
78148;SDS011;67396;42.664;23.382;2023-02-25T02:53:31;18.77;;;9.27;;
78148;SDS011;67396;42.664;23.382;2023-02-25T02:56:02;16.45;;;10.25;;
78148;SDS011;67396;42.664;23.382;2023-02-25T02:58:31;14.50;;;9.43;;
78148;SDS011;67396;42.664;23.382;2023-02-25T03:01:06;15.30;;;10.43;;
78148;SDS011;67396;42.664;23.382;2023-02-25T03:03:37;14.82;;;9.50;;
78148;SDS011;67396;42.664;23.382;2023-02-25T03:06:16;15.30;;;9.90;;
78148;SDS011;67396;42.664;23.382;2023-02-25T03:08:46;16.58;;;9.57;;
78148;SDS011;67396;42.664;23.382;2023-02-25T03:11:20;20.48;;;9.85;;
78148;SDS011;67396;42.664;23.382;2023-02-25T03:13:45;17.80;;;9.82;;
78148;SDS011;67396;42.664;23.382;2023-02-25T03:16:12;15.13;;;8.85;;
78148;SDS011;67396;42.664;23.382;2023-02-25T03:18:55;16.08;;;8.98;;
78148;SDS011;67396;42.664;23.382;2023-02-25T03:21:31;17.77;;;9.68;;
78148;SDS011;67396;42.664;23.382;2023-02-25T03:24:02;16.50;;;10.00;;
78148;SDS011;67396;42.664;23.382;2023-02-25T03:26:32;15.30;;;9.40;;
78148;SDS011;67396;42.664;23.382;2023-02-25T03:28:58;15.82;;;10.00;;
78148;SDS011;67396;42.664;23.382;2023-02-25T03:31:25;15.20;;;9.23;;
78148;SDS011;67396;42.664;23.382;2023-02-25T03:37:03;15.88;;;9.75;;
78148;SDS011;67396;42.664;23.382;2023-02-25T03:39:35;19.02;;;9.02;;
78148;SDS011;67396;42.664;23.382;2023-02-25T03:42:05;16.15;;;9.18;;
78148;SDS011;67396;42.664;23.382;2023-02-25T03:44:45;17.00;;;9.15;;
78148;SDS011;67396;42.664;23.382;2023-02-25T03:47:15;14.93;;;9.57;;
78148;SDS011;67396;42.664;23.382;2023-02-25T03:49:47;19.83;;;10.18;;
78148;SDS011;67396;42.664;23.382;2023-02-25T03:52:14;17.70;;;9.82;;
78148;SDS011;67396;42.664;23.382;2023-02-25T03:54:48;18.30;;;10.07;;
78148;SDS011;67396;42.664;23.382;2023-02-25T03:57:18;16.77;;;9.38;;
78148;SDS011;67396;42.664;23.382;2023-02-25T03:59:49;14.43;;;8.68;;
78148;SDS011;67396;42.664;23.382;2023-02-25T04:02:14;22.63;;;9.63;;
78148;SDS011;67396;42.664;23.382;2023-02-25T04:04:41;19.55;;;10.52;;
78148;SDS011;67396;42.664;23.382;2023-02-25T04:07:07;17.45;;;10.13;;
78148;SDS011;67396;42.664;23.382;2023-02-25T04:09:32;18.77;;;10.45;;
78148;SDS011;67396;42.664;23.382;2023-02-25T04:11:58;16.27;;;9.30;;
78148;SDS011;67396;42.664;23.382;2023-02-25T04:14:23;12.48;;;8.63;;
78148;SDS011;67396;42.664;23.382;2023-02-25T04:16:48;15.93;;;8.30;;
78148;SDS011;67396;42.664;23.382;2023-02-25T04:19:14;19.05;;;10.23;;
78148;SDS011;67396;42.664;23.382;2023-02-25T04:21:40;18.50;;;10.18;;
78148;SDS011;67396;42.664;23.382;2023-02-25T04:24:06;15.48;;;9.40;;
78148;SDS011;67396;42.664;23.382;2023-02-25T04:26:32;17.50;;;9.93;;
78148;SDS011;67396;42.664;23.382;2023-02-25T04:28:59;18.50;;;10.10;;
78148;SDS011;67396;42.664;23.382;2023-02-25T04:31:24;15.45;;;9.18;;
78148;SDS011;67396;42.664;23.382;2023-02-25T04:33:50;15.48;;;9.30;;
78148;SDS011;67396;42.664;23.382;2023-02-25T04:36:29;15.88;;;9.23;;
78148;SDS011;67396;42.664;23.382;2023-02-25T04:38:57;15.85;;;8.88;;
78148;SDS011;67396;42.664;23.382;2023-02-25T04:41:26;16.40;;;9.73;;
78148;SDS011;67396;42.664;23.382;2023-02-25T04:43:53;16.33;;;9.10;;
78148;SDS011;67396;42.664;23.382;2023-02-25T04:46:19;17.60;;;10.05;;
78148;SDS011;67396;42.664;23.382;2023-02-25T04:48:44;16.88;;;8.77;;
78148;SDS011;67396;42.664;23.382;2023-02-25T04:51:10;14.27;;;8.45;;
78148;SDS011;67396;42.664;23.382;2023-02-25T04:53:35;16.83;;;8.60;;
78148;SDS011;67396;42.664;23.382;2023-02-25T04:56:04;17.05;;;8.57;;
78148;SDS011;67396;42.664;23.382;2023-02-25T04:58:32;18.23;;;8.70;;
78148;SDS011;67396;42.664;23.382;2023-02-25T05:00:59;16.02;;;8.88;;
78148;SDS011;67396;42.664;23.382;2023-02-25T05:03:26;20.40;;;9.40;;
78148;SDS011;67396;42.664;23.382;2023-02-25T05:05:52;17.48;;;9.25;;
78148;SDS011;67396;42.664;23.382;2023-02-25T05:08:17;13.32;;;7.95;;
78148;SDS011;67396;42.664;23.382;2023-02-25T05:10:43;14.57;;;8.30;;
78148;SDS011;67396;42.664;23.382;2023-02-25T05:13:08;19.42;;;10.20;;
78148;SDS011;67396;42.664;23.382;2023-02-25T05:15:34;14.82;;;9.63;;
78148;SDS011;67396;42.664;23.382;2023-02-25T05:17:59;17.10;;;9.50;;
78148;SDS011;67396;42.664;23.382;2023-02-25T05:20:25;21.30;;;10.40;;
78148;SDS011;67396;42.664;23.382;2023-02-25T05:22:50;19.48;;;10.57;;
78148;SDS011;67396;42.664;23.382;2023-02-25T05:25:16;20.13;;;10.45;;
78148;SDS011;67396;42.664;23.382;2023-02-25T05:27:41;18.98;;;10.68;;
78148;SDS011;67396;42.664;23.382;2023-02-25T05:30:07;26.70;;;11.65;;
78148;SDS011;67396;42.664;23.382;2023-02-25T05:32:34;19.92;;;11.38;;
78148;SDS011;67396;42.664;23.382;2023-02-25T05:35:02;20.75;;;12.15;;
78148;SDS011;67396;42.664;23.382;2023-02-25T05:37:29;22.40;;;13.25;;
78148;SDS011;67396;42.664;23.382;2023-02-25T05:39:56;19.48;;;11.65;;
78148;SDS011;67396;42.664;23.382;2023-02-25T05:42:22;19.13;;;11.45;;
78148;SDS011;67396;42.664;23.382;2023-02-25T05:44:48;24.67;;;13.75;;
78148;SDS011;67396;42.664;23.382;2023-02-25T05:47:14;26.20;;;15.05;;
78148;SDS011;67396;42.664;23.382;2023-02-25T05:49:40;25.00;;;14.20;;
78148;SDS011;67396;42.664;23.382;2023-02-25T05:52:06;24.52;;;14.43;;
78148;SDS011;67396;42.664;23.382;2023-02-25T05:54:32;28.17;;;14.07;;
78148;SDS011;67396;42.664;23.382;2023-02-25T05:56:57;25.50;;;12.90;;
78148;SDS011;67396;42.664;23.382;2023-02-25T05:59:23;21.40;;;12.68;;
78148;SDS011;67396;42.664;23.382;2023-02-25T06:01:48;26.13;;;12.73;;
78148;SDS011;67396;42.664;23.382;2023-02-25T06:04:14;20.45;;;12.52;;
78148;SDS011;67396;42.664;23.382;2023-02-25T06:06:39;21.92;;;12.80;;
78148;SDS011;67396;42.664;23.382;2023-02-25T06:09:05;23.25;;;12.45;;
78148;SDS011;67396;42.664;23.382;2023-02-25T06:11:33;23.33;;;12.25;;
78148;SDS011;67396;42.664;23.382;2023-02-25T06:13:59;21.48;;;12.27;;
78148;SDS011;67396;42.664;23.382;2023-02-25T06:16:25;21.50;;;12.55;;
78148;SDS011;67396;42.664;23.382;2023-02-25T06:18:56;17.90;;;11.30;;
78148;SDS011;67396;42.664;23.382;2023-02-25T06:21:23;26.60;;;11.90;;
78148;SDS011;67396;42.664;23.382;2023-02-25T06:23:50;20.05;;;10.82;;
78148;SDS011;67396;42.664;23.382;2023-02-25T06:26:16;18.75;;;10.77;;
78148;SDS011;67396;42.664;23.382;2023-02-25T06:28:42;19.70;;;10.70;;
78148;SDS011;67396;42.664;23.382;2023-02-25T06:31:08;21.85;;;12.60;;
78148;SDS011;67396;42.664;23.382;2023-02-25T06:33:35;16.40;;;9.80;;
78148;SDS011;67396;42.664;23.382;2023-02-25T06:36:01;17.73;;;11.45;;
78148;SDS011;67396;42.664;23.382;2023-02-25T06:38:29;17.85;;;10.73;;
78148;SDS011;67396;42.664;23.382;2023-02-25T06:40:54;21.50;;;12.30;;
78148;SDS011;67396;42.664;23.382;2023-02-25T06:43:20;18.20;;;9.93;;
78148;SDS011;67396;42.664;23.382;2023-02-25T06:45:45;19.85;;;10.73;;
78148;SDS011;67396;42.664;23.382;2023-02-25T06:48:11;20.88;;;10.20;;
78148;SDS011;67396;42.664;23.382;2023-02-25T06:50:39;14.20;;;9.40;;
78148;SDS011;67396;42.664;23.382;2023-02-25T06:53:05;18.85;;;10.25;;
78148;SDS011;67396;42.664;23.382;2023-02-25T06:55:36;16.38;;;9.88;;
78148;SDS011;67396;42.664;23.382;2023-02-25T06:58:03;17.77;;;10.50;;
78148;SDS011;67396;42.664;23.382;2023-02-25T07:00:29;17.00;;;11.15;;
78148;SDS011;67396;42.664;23.382;2023-02-25T07:02:54;16.27;;;10.32;;
78148;SDS011;67396;42.664;23.382;2023-02-25T07:05:19;16.40;;;8.13;;
78148;SDS011;67396;42.664;23.382;2023-02-25T07:07:45;21.27;;;9.75;;
78148;SDS011;67396;42.664;23.382;2023-02-25T07:10:11;19.13;;;10.05;;
78148;SDS011;67396;42.664;23.382;2023-02-25T07:12:36;20.45;;;10.93;;
78148;SDS011;67396;42.664;23.382;2023-02-25T07:15:02;17.38;;;10.63;;
78148;SDS011;67396;42.664;23.382;2023-02-25T07:17:28;14.57;;;9.38;;
78148;SDS011;67396;42.664;23.382;2023-02-25T07:19:53;20.45;;;9.77;;
78148;SDS011;67396;42.664;23.382;2023-02-25T07:22:20;18.10;;;8.38;;
78148;SDS011;67396;42.664;23.382;2023-02-25T07:24:45;15.70;;;8.60;;
78148;SDS011;67396;42.664;23.382;2023-02-25T07:27:11;15.55;;;8.02;;
78148;SDS011;67396;42.664;23.382;2023-02-25T07:29:38;17.45;;;8.93;;
78148;SDS011;67396;42.664;23.382;2023-02-25T07:32:03;14.85;;;8.80;;
78148;SDS011;67396;42.664;23.382;2023-02-25T07:34:29;17.48;;;9.18;;
78148;SDS011;67396;42.664;23.382;2023-02-25T07:36:55;19.75;;;10.18;;
78148;SDS011;67396;42.664;23.382;2023-02-25T07:39:20;20.38;;;9.55;;
78148;SDS011;67396;42.664;23.382;2023-02-25T07:41:46;17.77;;;8.65;;
78148;SDS011;67396;42.664;23.382;2023-02-25T07:44:12;19.08;;;8.82;;
78148;SDS011;67396;42.664;23.382;2023-02-25T07:46:37;15.57;;;8.90;;
78148;SDS011;67396;42.664;23.382;2023-02-25T07:49:03;16.20;;;8.30;;
78148;SDS011;67396;42.664;23.382;2023-02-25T07:51:29;20.65;;;9.52;;
78148;SDS011;67396;42.664;23.382;2023-02-25T07:53:55;15.75;;;9.38;;
78148;SDS011;67396;42.664;23.382;2023-02-25T07:56:22;16.27;;;8.73;;
78148;SDS011;67396;42.664;23.382;2023-02-25T07:59:01;19.58;;;9.50;;
78148;SDS011;67396;42.664;23.382;2023-02-25T08:01:28;18.30;;;9.02;;
78148;SDS011;67396;42.664;23.382;2023-02-25T08:03:58;13.20;;;8.60;;
78148;SDS011;67396;42.664;23.382;2023-02-25T08:06:28;14.30;;;9.00;;
78148;SDS011;67396;42.664;23.382;2023-02-25T08:08:54;18.27;;;8.80;;
78148;SDS011;67396;42.664;23.382;2023-02-25T08:11:21;17.00;;;9.27;;
78148;SDS011;67396;42.664;23.382;2023-02-25T08:13:48;22.88;;;9.30;;
78148;SDS011;67396;42.664;23.382;2023-02-25T08:16:16;20.63;;;9.70;;
78148;SDS011;67396;42.664;23.382;2023-02-25T08:18:42;17.27;;;9.05;;
78148;SDS011;67396;42.664;23.382;2023-02-25T08:21:08;22.83;;;10.55;;
78148;SDS011;67396;42.664;23.382;2023-02-25T08:23:35;18.45;;;10.45;;
78148;SDS011;67396;42.664;23.382;2023-02-25T08:26:00;17.42;;;9.75;;
78148;SDS011;67396;42.664;23.382;2023-02-25T08:28:26;13.85;;;9.93;;
78148;SDS011;67396;42.664;23.382;2023-02-25T08:30:56;21.20;;;11.07;;
78148;SDS011;67396;42.664;23.382;2023-02-25T08:33:22;18.35;;;9.48;;
78148;SDS011;67396;42.664;23.382;2023-02-25T08:35:49;15.32;;;8.93;;
78148;SDS011;67396;42.664;23.382;2023-02-25T08:38:15;15.13;;;9.02;;
78148;SDS011;67396;42.664;23.382;2023-02-25T08:40:41;17.85;;;10.18;;
78148;SDS011;67396;42.664;23.382;2023-02-25T08:43:07;20.23;;;9.40;;
78148;SDS011;67396;42.664;23.382;2023-02-25T08:45:33;18.17;;;9.88;;
78148;SDS011;67396;42.664;23.382;2023-02-25T08:48:00;14.40;;;8.85;;
78148;SDS011;67396;42.664;23.382;2023-02-25T08:50:26;33.15;;;19.40;;
78148;SDS011;67396;42.664;23.382;2023-02-25T08:52:51;25.02;;;8.68;;
78148;SDS011;67396;42.664;23.382;2023-02-25T08:55:17;19.17;;;8.73;;
78148;SDS011;67396;42.664;23.382;2023-02-25T08:57:42;15.90;;;8.65;;
78148;SDS011;67396;42.664;23.382;2023-02-25T09:00:11;15.15;;;8.10;;
78148;SDS011;67396;42.664;23.382;2023-02-25T09:02:39;17.10;;;9.10;;
78148;SDS011;67396;42.664;23.382;2023-02-25T09:05:05;18.98;;;9.50;;
78148;SDS011;67396;42.664;23.382;2023-02-25T09:07:31;24.00;;;10.52;;
78148;SDS011;67396;42.664;23.382;2023-02-25T09:09:59;22.15;;;11.73;;
78148;SDS011;67396;42.664;23.382;2023-02-25T09:12:25;36.58;;;22.50;;
78148;SDS011;67396;42.664;23.382;2023-02-25T09:14:50;33.38;;;14.70;;
78148;SDS011;67396;42.664;23.382;2023-02-25T09:17:16;25.15;;;13.35;;
78148;SDS011;67396;42.664;23.382;2023-02-25T09:19:41;23.42;;;11.88;;
78148;SDS011;67396;42.664;23.382;2023-02-25T09:22:07;19.17;;;10.57;;
78148;SDS011;67396;42.664;23.382;2023-02-25T09:24:34;24.98;;;11.73;;
78148;SDS011;67396;42.664;23.382;2023-02-25T09:27:00;20.20;;;11.48;;
78148;SDS011;67396;42.664;23.382;2023-02-25T09:29:31;20.77;;;10.60;;
78148;SDS011;67396;42.664;23.382;2023-02-25T09:31:57;21.42;;;10.20;;
78148;SDS011;67396;42.664;23.382;2023-02-25T09:34:23;21.52;;;10.25;;
78148;SDS011;67396;42.664;23.382;2023-02-25T09:36:48;22.33;;;10.27;;
78148;SDS011;67396;42.664;23.382;2023-02-25T09:39:14;22.60;;;12.38;;
78148;SDS011;67396;42.664;23.382;2023-02-25T09:44:26;28.20;;;14.38;;
78148;SDS011;67396;42.664;23.382;2023-02-25T09:52:20;24.48;;;13.45;;
78148;SDS011;67396;42.664;23.382;2023-02-25T09:54:56;20.15;;;12.05;;
78148;SDS011;67396;42.664;23.382;2023-02-25T09:57:27;22.17;;;10.60;;
78148;SDS011;67396;42.664;23.382;2023-02-25T09:59:55;28.70;;;12.68;;
78148;SDS011;67396;42.664;23.382;2023-02-25T10:02:24;19.38;;;10.38;;
78148;SDS011;67396;42.664;23.382;2023-02-25T10:05:40;24.00;;;10.50;;
78148;SDS011;67396;42.664;23.382;2023-02-25T10:14:13;27.80;;;13.43;;
78148;SDS011;67396;42.664;23.382;2023-02-25T10:19:45;25.80;;;10.77;;
78148;SDS011;67396;42.664;23.382;2023-02-25T10:24:59;20.05;;;8.40;;
78148;SDS011;67396;42.664;23.382;2023-02-25T10:27:37;20.02;;;9.48;;
78148;SDS011;67396;42.664;23.382;2023-02-25T10:32:55;25.48;;;11.48;;
78148;SDS011;67396;42.664;23.382;2023-02-25T10:35:23;22.85;;;10.88;;
78148;SDS011;67396;42.664;23.382;2023-02-25T10:37:53;16.80;;;10.27;;
78148;SDS011;67396;42.664;23.382;2023-02-25T10:40:23;15.00;;;8.30;;
78148;SDS011;67396;42.664;23.382;2023-02-25T10:42:54;21.25;;;9.63;;
78148;SDS011;67396;42.664;23.382;2023-02-25T10:45:25;17.83;;;7.57;;
78148;SDS011;67396;42.664;23.382;2023-02-25T10:48:25;22.70;;;7.57;;
78148;SDS011;67396;42.664;23.382;2023-02-25T10:51:07;13.60;;;6.97;;
78148;SDS011;67396;42.664;23.382;2023-02-25T10:53:36;18.83;;;7.65;;
78148;SDS011;67396;42.664;23.382;2023-02-25T10:56:22;15.63;;;7.22;;
78148;SDS011;67396;42.664;23.382;2023-02-25T11:02:02;15.70;;;7.60;;
78148;SDS011;67396;42.664;23.382;2023-02-25T11:04:42;15.68;;;6.95;;
78148;SDS011;67396;42.664;23.382;2023-02-25T11:07:22;19.27;;;6.70;;
78148;SDS011;67396;42.664;23.382;2023-02-25T11:12:46;15.02;;;6.95;;
78148;SDS011;67396;42.664;23.382;2023-02-25T11:15:33;16.20;;;6.95;;
78148;SDS011;67396;42.664;23.382;2023-02-25T11:18:03;13.65;;;5.97;;
78148;SDS011;67396;42.664;23.382;2023-02-25T11:20:39;16.35;;;7.18;;
78148;SDS011;67396;42.664;23.382;2023-02-25T11:23:16;16.83;;;6.80;;
78148;SDS011;67396;42.664;23.382;2023-02-25T11:25:49;18.85;;;6.50;;
78148;SDS011;67396;42.664;23.382;2023-02-25T11:30:43;13.57;;;6.22;;
78148;SDS011;67396;42.664;23.382;2023-02-25T11:33:22;14.90;;;6.20;;
78148;SDS011;67396;42.664;23.382;2023-02-25T11:35:56;13.40;;;5.53;;
78148;SDS011;67396;42.664;23.382;2023-02-25T11:38:26;16.83;;;6.28;;
78148;SDS011;67396;42.664;23.382;2023-02-25T11:40:51;13.35;;;5.82;;
78148;SDS011;67396;42.664;23.382;2023-02-25T11:43:20;17.50;;;6.32;;
78148;SDS011;67396;42.664;23.382;2023-02-25T11:46:00;14.93;;;6.40;;
78148;SDS011;67396;42.664;23.382;2023-02-25T11:54:03;19.80;;;5.13;;
78148;SDS011;67396;42.664;23.382;2023-02-25T11:56:39;11.00;;;5.00;;
78148;SDS011;67396;42.664;23.382;2023-02-25T12:13:23;16.92;;;5.18;;
78148;SDS011;67396;42.664;23.382;2023-02-25T12:21:19;16.42;;;6.15;;
78148;SDS011;67396;42.664;23.382;2023-02-25T12:24:35;14.93;;;5.90;;
78148;SDS011;67396;42.664;23.382;2023-02-25T12:46:14;12.73;;;4.40;;
78148;SDS011;67396;42.664;23.382;2023-02-25T12:54:21;15.30;;;4.05;;
78148;SDS011;67396;42.664;23.382;2023-02-25T12:57:02;18.48;;;5.32;;
78148;SDS011;67396;42.664;23.382;2023-02-25T13:13:29;10.63;;;4.60;;
78148;SDS011;67396;42.664;23.382;2023-02-25T13:18:57;11.85;;;4.15;;
78148;SDS011;67396;42.664;23.382;2023-02-25T13:35:31;13.63;;;3.65;;
78148;SDS011;67396;42.664;23.382;2023-02-25T13:49:02;10.23;;;3.65;;
78148;SDS011;67396;42.664;23.382;2023-02-25T14:06:24;8.80;;;3.50;;
78148;SDS011;67396;42.664;23.382;2023-02-25T14:09:29;11.05;;;3.47;;
78148;SDS011;67396;42.664;23.382;2023-02-25T14:14:34;11.43;;;4.18;;
78148;SDS011;67396;42.664;23.382;2023-02-25T14:25:54;11.18;;;3.35;;
78148;SDS011;67396;42.664;23.382;2023-02-25T14:45:04;8.50;;;3.25;;
78148;SDS011;67396;42.664;23.382;2023-02-25T14:52:48;13.27;;;4.57;;
78148;SDS011;67396;42.664;23.382;2023-02-25T14:55:55;9.30;;;3.00;;
78148;SDS011;67396;42.664;23.382;2023-02-25T14:58:41;8.93;;;3.65;;
78148;SDS011;67396;42.664;23.382;2023-02-25T15:09:45;11.57;;;3.22;;
78148;SDS011;67396;42.664;23.382;2023-02-25T15:23:56;10.98;;;3.25;;
78148;SDS011;67396;42.664;23.382;2023-02-25T15:29:17;14.07;;;3.92;;
78148;SDS011;67396;42.664;23.382;2023-02-25T15:32:07;13.63;;;4.00;;
78148;SDS011;67396;42.664;23.382;2023-02-25T15:34:58;12.57;;;3.70;;
78148;SDS011;67396;42.664;23.382;2023-02-25T15:37:30;8.57;;;3.40;;
78148;SDS011;67396;42.664;23.382;2023-02-25T15:39:58;11.80;;;3.63;;
78148;SDS011;67396;42.664;23.382;2023-02-25T15:42:50;13.00;;;3.92;;
78148;SDS011;67396;42.664;23.382;2023-02-25T15:45:38;6.78;;;3.38;;
78148;SDS011;67396;42.664;23.382;2023-02-25T16:01:01;17.48;;;3.60;;
78148;SDS011;67396;42.664;23.382;2023-02-25T16:03:45;12.52;;;4.57;;
78148;SDS011;67396;42.664;23.382;2023-02-25T16:08:56;9.48;;;4.10;;
78148;SDS011;67396;42.664;23.382;2023-02-25T16:11:33;7.57;;;3.63;;
78148;SDS011;67396;42.664;23.382;2023-02-25T16:14:02;13.68;;;3.63;;
78148;SDS011;67396;42.664;23.382;2023-02-25T16:16:31;9.75;;;3.75;;
78148;SDS011;67396;42.664;23.382;2023-02-25T16:18:58;12.05;;;3.70;;
78148;SDS011;67396;42.664;23.382;2023-02-25T16:24:05;12.00;;;3.90;;
78148;SDS011;67396;42.664;23.382;2023-02-25T16:29:17;6.60;;;3.00;;
78148;SDS011;67396;42.664;23.382;2023-02-25T16:32:04;12.50;;;4.45;;
78148;SDS011;67396;42.664;23.382;2023-02-25T16:40:35;11.30;;;3.28;;
78148;SDS011;67396;42.664;23.382;2023-02-25T16:43:03;7.95;;;3.33;;
78148;SDS011;67396;42.664;23.382;2023-02-25T16:45:31;12.68;;;3.33;;
78148;SDS011;67396;42.664;23.382;2023-02-25T16:48:07;13.52;;;3.97;;
78148;SDS011;67396;42.664;23.382;2023-02-25T16:50:43;11.95;;;4.45;;
78148;SDS011;67396;42.664;23.382;2023-02-25T16:53:14;9.00;;;4.00;;
78148;SDS011;67396;42.664;23.382;2023-02-25T16:55:43;16.30;;;6.05;;
78148;SDS011;67396;42.664;23.382;2023-02-25T17:00:54;10.95;;;3.85;;
78148;SDS011;67396;42.664;23.382;2023-02-25T17:03:21;13.30;;;3.90;;
78148;SDS011;67396;42.664;23.382;2023-02-25T17:06:13;9.98;;;4.07;;
78148;SDS011;67396;42.664;23.382;2023-02-25T17:08:49;8.73;;;3.80;;
78148;SDS011;67396;42.664;23.382;2023-02-25T17:11:15;11.93;;;4.35;;
78148;SDS011;67396;42.664;23.382;2023-02-25T17:13:43;10.68;;;5.10;;
78148;SDS011;67396;42.664;23.382;2023-02-25T17:16:28;10.75;;;4.32;;
78148;SDS011;67396;42.664;23.382;2023-02-25T17:18:57;13.55;;;3.50;;
78148;SDS011;67396;42.664;23.382;2023-02-25T17:21:38;17.25;;;4.25;;
78148;SDS011;67396;42.664;23.382;2023-02-25T17:24:12;12.77;;;3.97;;
78148;SDS011;67396;42.664;23.382;2023-02-25T17:26:40;10.20;;;3.72;;
78148;SDS011;67396;42.664;23.382;2023-02-25T17:29:14;8.63;;;4.20;;
78148;SDS011;67396;42.664;23.382;2023-02-25T17:31:47;8.75;;;3.88;;
78148;SDS011;67396;42.664;23.382;2023-02-25T17:34:31;15.00;;;4.10;;
78148;SDS011;67396;42.664;23.382;2023-02-25T17:36:59;16.20;;;5.15;;
78148;SDS011;67396;42.664;23.382;2023-02-25T17:39:28;11.80;;;4.00;;
78148;SDS011;67396;42.664;23.382;2023-02-25T17:41:55;13.25;;;3.95;;
78148;SDS011;67396;42.664;23.382;2023-02-25T17:47:06;14.07;;;4.47;;
78148;SDS011;67396;42.664;23.382;2023-02-25T17:49:33;11.07;;;3.45;;
78148;SDS011;67396;42.664;23.382;2023-02-25T17:52:02;45.30;;;24.90;;
78148;SDS011;67396;42.664;23.382;2023-02-25T17:54:31;10.85;;;4.50;;
78148;SDS011;67396;42.664;23.382;2023-02-25T17:57:00;12.40;;;5.18;;
78148;SDS011;67396;42.664;23.382;2023-02-25T18:04:47;18.33;;;4.28;;
78148;SDS011;67396;42.664;23.382;2023-02-25T18:09:53;11.38;;;4.35;;
78148;SDS011;67396;42.664;23.382;2023-02-25T18:14:45;11.73;;;5.00;;
78148;SDS011;67396;42.664;23.382;2023-02-25T18:19:59;9.98;;;4.07;;
78148;SDS011;67396;42.664;23.382;2023-02-25T18:25:27;13.90;;;4.38;;
78148;SDS011;67396;42.664;23.382;2023-02-25T18:28:17;11.05;;;3.88;;
78148;SDS011;67396;42.664;23.382;2023-02-25T18:30:47;39.53;;;20.75;;
78148;SDS011;67396;42.664;23.382;2023-02-25T18:33:14;12.00;;;4.63;;
78148;SDS011;67396;42.664;23.382;2023-02-25T18:38:28;9.65;;;3.50;;
78148;SDS011;67396;42.664;23.382;2023-02-25T18:40:55;9.82;;;3.78;;
78148;SDS011;67396;42.664;23.382;2023-02-25T18:43:22;10.13;;;4.07;;
78148;SDS011;67396;42.664;23.382;2023-02-25T18:45:52;10.00;;;3.42;;
78148;SDS011;67396;42.664;23.382;2023-02-25T18:48:18;8.95;;;4.28;;
78148;SDS011;67396;42.664;23.382;2023-02-25T18:50:43;8.88;;;3.42;;
78148;SDS011;67396;42.664;23.382;2023-02-25T18:53:12;10.23;;;3.67;;
78148;SDS011;67396;42.664;23.382;2023-02-25T18:55:43;9.57;;;4.05;;
78148;SDS011;67396;42.664;23.382;2023-02-25T18:58:13;10.05;;;4.05;;